createdAt,value
2023-09-07T00:02:07.205Z,99271.75
2023-09-07T00:04:34.070Z,99280.56
2023-09-07T00:07:00.887Z,99272.00
2023-09-07T00:09:28.481Z,99279.22
2023-09-07T00:11:55.232Z,99273.97
2023-09-07T00:14:21.901Z,99273.00
2023-09-07T00:16:48.595Z,99262.91
2023-09-07T00:19:15.747Z,99275.56
2023-09-07T00:21:42.651Z,99269.72
2023-09-07T00:24:09.332Z,99276.25
2023-09-07T00:26:36.001Z,99275.22
2023-09-07T00:29:02.735Z,99275.84
2023-09-07T00:31:29.569Z,99274.88
2023-09-07T00:33:56.319Z,99268.69
2023-09-07T00:36:24.012Z,99270.53
2023-09-07T00:38:50.664Z,99264.00
2023-09-07T00:41:17.387Z,99262.34
2023-09-07T00:43:44.064Z,99268.69
2023-09-07T00:46:11.250Z,99260.97
2023-09-07T00:48:39.413Z,99253.91
2023-09-07T00:51:06.054Z,99258.22
2023-09-07T00:53:32.768Z,99265.06
2023-09-07T00:56:00.258Z,99262.81
2023-09-07T00:58:27.340Z,99251.88
2023-09-07T01:00:54.520Z,99254.69
2023-09-07T01:03:21.494Z,99257.94
2023-09-07T01:06:13.546Z,99254.19
2023-09-07T01:08:48.084Z,99244.78
2023-09-07T01:11:16.361Z,99244.00
2023-09-07T01:13:43.500Z,99248.81
2023-09-07T01:16:11.783Z,99245.06
2023-09-07T01:18:40.332Z,99238.53
2023-09-07T01:21:09.174Z,99234.75
2023-09-07T01:23:38.043Z,99229.31
2023-09-07T01:26:09.485Z,99231.59
2023-09-07T01:28:38.090Z,99234.75
2023-09-07T01:31:05.676Z,99234.13
2023-09-07T01:33:32.590Z,99226.53
2023-09-07T01:35:59.510Z,99234.56
2023-09-07T01:38:26.143Z,99231.19
2023-09-07T01:40:52.858Z,99236.63
2023-09-07T01:43:21.112Z,99234.41
2023-09-07T01:45:47.748Z,99233.88
2023-09-07T01:48:15.599Z,99232.19
2023-09-07T01:50:42.565Z,99232.09
2023-09-07T01:53:09.302Z,99234.25
2023-09-07T01:55:36.156Z,99231.91
2023-09-07T01:58:03.039Z,99240.13
2023-09-07T02:00:29.699Z,99237.00
2023-09-07T02:02:56.468Z,99248.44
2023-09-07T02:05:23.179Z,99245.00
2023-09-07T02:07:53.463Z,99240.00
2023-09-07T02:10:20.166Z,99243.88
2023-09-07T02:12:47.755Z,99243.66
2023-09-07T02:15:16.258Z,99238.91
2023-09-07T02:17:46.192Z,99244.63
2023-09-07T02:20:13.268Z,99237.50
2023-09-07T02:22:40.282Z,99238.06
2023-09-07T02:25:07.805Z,99232.25
2023-09-07T02:27:35.158Z,99231.75
2023-09-07T02:30:03.432Z,99233.53
2023-09-07T02:36:36.995Z,99232.59
2023-09-07T02:39:04.637Z,99235.59
2023-09-07T02:41:32.991Z,99232.31
2023-09-07T02:43:59.738Z,99230.31
2023-09-07T02:46:26.653Z,99229.56
2023-09-07T02:48:55.638Z,99230.63
2023-09-07T02:51:24.336Z,99232.97
2023-09-07T02:53:51.842Z,99224.50
2023-09-07T02:56:18.682Z,99225.72
2023-09-07T02:58:46.320Z,99233.84
2023-09-07T03:01:14.438Z,99219.84
2023-09-07T03:03:44.170Z,99227.69
2023-09-07T03:06:12.963Z,99229.59
2023-09-07T03:08:41.264Z,99232.31
2023-09-07T03:11:09.539Z,99228.59
2023-09-07T03:13:36.612Z,99227.50
2023-09-07T03:16:05.055Z,99216.72
2023-09-07T03:18:32.871Z,99216.28
2023-09-07T03:21:02.131Z,99217.63
2023-09-07T03:23:30.310Z,99221.38
2023-09-07T03:25:57.631Z,99227.09
2023-09-07T03:28:26.079Z,99222.00
2023-09-07T03:30:54.869Z,99223.34
2023-09-07T03:33:21.777Z,99223.19
2023-09-07T03:35:48.660Z,99217.94
2023-09-07T03:38:16.384Z,99222.75
2023-09-07T03:40:43.008Z,99230.25
2023-09-07T03:43:10.553Z,99233.09
2023-09-07T03:45:37.344Z,99230.53
2023-09-07T03:48:04.776Z,99237.47
2023-09-07T03:50:31.491Z,99233.84
2023-09-07T03:52:58.571Z,99235.34
2023-09-07T03:55:25.344Z,99238.22
2023-09-07T03:57:51.999Z,99241.19
2023-09-07T04:00:20.802Z,99240.63
2023-09-07T04:02:47.703Z,99242.41
2023-09-07T04:05:14.686Z,99241.69
2023-09-07T04:07:41.309Z,99237.78
2023-09-07T04:10:08.332Z,99243.75
2023-09-07T04:12:34.968Z,99239.56
2023-09-07T04:15:03.977Z,99235.06
2023-09-07T04:17:30.853Z,99234.16
2023-09-07T04:19:57.551Z,99237.91
2023-09-07T04:22:24.213Z,99241.94
2023-09-07T04:24:51.076Z,99241.66
2023-09-07T04:27:17.904Z,99248.56
2023-09-07T04:29:44.591Z,99247.97
2023-09-07T04:32:11.279Z,99244.22
2023-09-07T04:34:37.941Z,99233.56
2023-09-07T04:37:04.941Z,99250.66
2023-09-07T04:39:31.802Z,99247.06
2023-09-07T04:41:58.448Z,99247.06
2023-09-07T04:44:27.289Z,99243.13
2023-09-07T04:46:56.788Z,99239.34
2023-09-07T04:49:25.364Z,99248.41
2023-09-07T04:51:55.161Z,99251.00
2023-09-07T04:54:21.828Z,99252.19
2023-09-07T04:56:48.986Z,99253.81
2023-09-07T04:59:15.870Z,99260.84
2023-09-07T05:01:42.859Z,99260.53
2023-09-07T05:04:09.681Z,99257.28
2023-09-07T05:06:38.465Z,99261.44
2023-09-07T05:09:05.260Z,99257.41
2023-09-07T05:11:31.958Z,99265.81
2023-09-07T05:13:58.577Z,99262.34
2023-09-07T05:16:25.240Z,99262.53
2023-09-07T05:18:52.833Z,99263.56
2023-09-07T05:21:19.569Z,99266.28
2023-09-07T05:23:48.191Z,99271.19
2023-09-07T05:26:14.890Z,99273.19
2023-09-07T05:28:42.930Z,99277.38
2023-09-07T05:31:09.810Z,99276.78
2023-09-07T05:33:36.659Z,99281.44
2023-09-07T05:36:03.618Z,99276.63
2023-09-07T05:38:32.130Z,99282.47
2023-09-07T05:41:00.501Z,99282.19
2023-09-07T05:43:27.202Z,99277.06
2023-09-07T05:45:54.025Z,99276.78
2023-09-07T05:48:20.840Z,99282.31
2023-09-07T05:50:50.596Z,99278.88
2023-09-07T05:53:19.753Z,99277.97
2023-09-07T05:55:46.477Z,99273.28
2023-09-07T05:58:14.046Z,99275.63
2023-09-07T06:00:41.787Z,99273.22
2023-09-07T06:03:09.528Z,99273.44
2023-09-07T06:05:37.943Z,99282.84
2023-09-07T06:08:05.336Z,99278.53
2023-09-07T06:10:32.118Z,99276.84
2023-09-07T06:13:01.366Z,99270.25
2023-09-07T06:15:28.468Z,99274.88
2023-09-07T06:17:55.488Z,99270.31
2023-09-07T06:20:22.518Z,99278.22
2023-09-07T06:22:50.220Z,99284.06
2023-09-07T06:25:17.136Z,99283.13
2023-09-07T06:27:44.506Z,99295.63
2023-09-07T06:30:11.572Z,99283.75
2023-09-07T06:32:39.556Z,99289.41
2023-09-07T06:35:07.150Z,99294.94
2023-09-07T06:37:33.943Z,99303.66
2023-09-07T06:40:00.707Z,99296.28
2023-09-07T06:42:27.617Z,99308.50
2023-09-07T06:44:54.282Z,99307.28
2023-09-07T06:47:20.947Z,99317.94
2023-09-07T06:49:47.597Z,99333.69
2023-09-07T06:52:16.528Z,99334.59
2023-09-07T06:54:43.365Z,99335.66
2023-09-07T06:57:10.155Z,99348.22
2023-09-07T06:59:36.874Z,99346.69
2023-09-07T07:02:05.939Z,99345.00
2023-09-07T07:04:32.970Z,99347.59
2023-09-07T07:07:02.160Z,99351.94
2023-09-07T07:09:30.652Z,99354.75
2023-09-07T07:11:58.939Z,99348.88
2023-09-07T07:14:25.639Z,99346.59
2023-09-07T07:16:52.414Z,99346.72
2023-09-07T07:19:34.200Z,99348.78
2023-09-07T07:22:00.914Z,99342.41
2023-09-07T07:24:27.790Z,99345.78
2023-09-07T07:26:54.435Z,99336.41
2023-09-07T07:29:21.115Z,99341.22
2023-09-07T07:31:48.097Z,99339.38
2023-09-07T07:34:15.338Z,99346.78
2023-09-07T07:36:42.472Z,99342.31
2023-09-07T07:39:09.319Z,99339.38
2023-09-07T07:41:36.941Z,99334.50
2023-09-07T07:44:03.928Z,99331.50
2023-09-07T07:46:30.663Z,99334.34
2023-09-07T07:48:57.366Z,99335.72
2023-09-07T07:51:24.058Z,99333.56
2023-09-07T07:53:51.110Z,99329.72
2023-09-07T07:56:19.319Z,99340.53
2023-09-07T07:58:46.088Z,99339.25
2023-09-07T08:01:18.063Z,99343.16
2023-09-07T08:03:45.697Z,99348.88
2023-09-07T08:06:12.861Z,99343.75
2023-09-07T08:08:40.749Z,99351.88
2023-09-07T08:11:07.995Z,99346.94
2023-09-07T08:13:35.174Z,99352.56
2023-09-07T08:16:03.401Z,99345.50
2023-09-07T08:18:32.877Z,99341.97
2023-09-07T08:20:59.865Z,99335.59
2023-09-07T08:23:26.613Z,99344.13
2023-09-07T08:26:04.055Z,99339.94
2023-09-07T08:28:31.180Z,99341.22
2023-09-07T08:31:00.242Z,99337.31
2023-09-07T08:35:57.932Z,99333.03
2023-09-07T08:38:28.779Z,99340.34
2023-09-07T08:40:58.643Z,99343.41
2023-09-07T08:43:30.362Z,99334.25
2023-09-07T08:46:06.249Z,99334.97
2023-09-07T08:48:33.724Z,99339.66
2023-09-07T08:51:02.034Z,99335.16
2023-09-07T08:53:31.294Z,99331.31
2023-09-07T08:55:58.836Z,99332.53
2023-09-07T08:58:25.511Z,99324.50
2023-09-07T09:00:53.802Z,99335.31
2023-09-07T09:03:23.964Z,99330.16
2023-09-07T09:05:52.390Z,99327.91
2023-09-07T09:08:25.171Z,99331.81
2023-09-07T09:11:04.748Z,99327.66
2023-09-07T09:13:32.956Z,99324.47
2023-09-07T09:16:04.189Z,99320.84
2023-09-07T09:18:31.840Z,99332.53
2023-09-07T09:21:01.840Z,99320.09
2023-09-07T09:23:38.250Z,99320.59
2023-09-07T09:26:06.220Z,99327.13
2023-09-07T09:28:34.686Z,99319.03
2023-09-07T09:31:03.419Z,99316.75
2023-09-07T09:33:32.700Z,99315.00
2023-09-07T09:35:59.889Z,99319.31
2023-09-07T09:38:26.717Z,99314.22
2023-09-07T09:40:54.753Z,99312.06
2023-09-07T09:43:22.534Z,99308.47
2023-09-07T09:45:53.536Z,99307.91
2023-09-07T09:48:24.499Z,99298.38
2023-09-07T09:50:51.881Z,99295.59
2023-09-07T09:53:21.423Z,99306.13
2023-09-07T09:55:49.259Z,99301.03
2023-09-07T09:58:17.500Z,99291.78
2023-09-07T10:00:49.361Z,99298.03
2023-09-07T10:03:48.907Z,99297.00
2023-09-07T10:06:29.849Z,99297.44
2023-09-07T10:08:59.132Z,99286.94
2023-09-07T10:11:39.896Z,99283.44
2023-09-07T10:14:08.791Z,99284.53
2023-09-07T10:16:54.469Z,99283.56
2023-09-07T10:19:23.636Z,99280.84
2023-09-07T10:21:54.049Z,99279.78
2023-09-07T10:24:41.007Z,99283.34
2023-09-07T10:27:10.035Z,99273.84
2023-09-07T10:29:57.082Z,99273.16
2023-09-07T10:32:24.063Z,99268.38
2023-09-07T10:34:51.537Z,99278.91
2023-09-07T10:37:18.339Z,99265.50
2023-09-07T10:39:46.404Z,99267.06
2023-09-07T10:42:24.958Z,99258.66
2023-09-07T10:44:52.389Z,99258.06
2023-09-07T10:47:19.229Z,99256.13
2023-09-07T10:49:46.203Z,99242.06
2023-09-07T10:52:13.621Z,99259.81
2023-09-07T10:54:40.324Z,99251.38
2023-09-07T10:57:14.717Z,99251.09
2023-09-07T10:59:47.888Z,99253.00
2023-09-07T11:02:16.593Z,99245.38
2023-09-07T11:04:43.719Z,99249.97
2023-09-07T11:07:10.728Z,99251.38
2023-09-07T11:09:42.665Z,99241.22
2023-09-07T11:12:13.463Z,99243.53
2023-09-07T11:14:40.693Z,99240.03
2023-09-07T11:17:07.466Z,99245.56
2023-09-07T11:19:35.337Z,99240.94
2023-09-07T11:22:02.089Z,99235.31
2023-09-07T11:24:29.431Z,99240.38
2023-09-07T11:26:58.649Z,99239.00
2023-09-07T11:29:25.730Z,99232.78
2023-09-07T11:31:52.538Z,99237.56
2023-09-07T11:34:19.217Z,99232.78
2023-09-07T11:36:45.948Z,99229.16
2023-09-07T11:39:15.501Z,99239.66
2023-09-07T11:41:44.234Z,99230.91
2023-09-07T11:44:11.835Z,99227.03
2023-09-07T11:46:39.956Z,99235.78
2023-09-07T11:49:07.015Z,99230.22
2023-09-07T11:51:34.150Z,99223.59
2023-09-07T11:54:03.016Z,99222.81
2023-09-07T11:56:30.177Z,99228.97
2023-09-07T11:58:57.393Z,99225.81
2023-09-07T12:01:24.393Z,99218.56
2023-09-07T12:03:51.263Z,99225.00
2023-09-07T12:06:18.275Z,99217.84
2023-09-07T12:09:00.668Z,99217.47
2023-09-07T12:11:27.337Z,99217.41
2023-09-07T12:13:54.021Z,99211.03
2023-09-07T12:16:20.970Z,99209.41
2023-09-07T12:18:47.801Z,99204.22
2023-09-07T12:21:14.454Z,99211.25
2023-09-07T12:23:41.104Z,99205.81
2023-09-07T12:26:07.803Z,99200.22
2023-09-07T12:28:34.428Z,99208.75
2023-09-07T12:31:01.169Z,99207.81
2023-09-07T12:33:30.393Z,99211.34
2023-09-07T12:35:57.387Z,99194.16
2023-09-07T12:38:28.604Z,99196.06
2023-09-07T12:40:56.002Z,99201.41
2023-09-07T12:43:22.681Z,99207.06
2023-09-07T12:45:49.439Z,99195.84
2023-09-07T12:48:16.951Z,99197.53
2023-09-07T12:50:44.099Z,99197.47
2023-09-07T12:53:10.867Z,99191.75
2023-09-07T12:55:37.602Z,99193.19
2023-09-07T12:58:04.704Z,99193.41
2023-09-07T13:00:31.384Z,99189.97
2023-09-07T13:02:58.111Z,99192.03
2023-09-07T13:05:24.902Z,99186.94
2023-09-07T13:07:52.290Z,99177.50
2023-09-07T13:10:19.792Z,99184.06
2023-09-07T13:12:46.426Z,99180.38
2023-09-07T13:15:13.065Z,99173.94
2023-09-07T13:17:39.982Z,99160.44
2023-09-07T13:20:07.827Z,99173.75
2023-09-07T13:22:34.449Z,99167.25
2023-09-07T13:25:01.985Z,99159.81
2023-09-07T13:27:28.660Z,99165.59
2023-09-07T13:29:55.300Z,99156.88
2023-09-07T13:32:21.941Z,99152.81
2023-09-07T13:34:48.625Z,99155.53
2023-09-07T13:37:15.269Z,99152.69
2023-09-07T13:39:41.930Z,99154.09
2023-09-07T13:42:08.566Z,99151.81
2023-09-07T13:44:35.277Z,99155.72
2023-09-07T13:47:01.977Z,99149.69
2023-09-07T13:49:28.683Z,99145.53
2023-09-07T13:51:55.434Z,99146.91
2023-09-07T13:54:22.083Z,99141.03
2023-09-07T13:56:48.760Z,99145.44
2023-09-07T13:59:15.419Z,99141.03
2023-09-07T14:01:42.143Z,99147.00
2023-09-07T14:04:08.797Z,99147.06
2023-09-07T14:06:35.426Z,99149.19
2023-09-07T14:09:02.024Z,99143.34
2023-09-07T14:11:28.719Z,99138.28
2023-09-07T14:13:55.968Z,99142.81
2023-09-07T14:16:23.463Z,99138.31
2023-09-07T14:18:50.872Z,99133.31
2023-09-07T14:21:18.566Z,99136.97
2023-09-07T14:23:46.125Z,99133.31
2023-09-07T14:26:12.747Z,99136.28
2023-09-07T14:28:40.296Z,99135.56
2023-09-07T14:31:08.392Z,99126.00
2023-09-07T14:33:39.423Z,99129.66
2023-09-07T14:36:07.394Z,99132.53
2023-09-07T14:38:40.902Z,99134.72
2023-09-07T14:41:09.502Z,99141.31
2023-09-07T14:43:36.207Z,99133.13
2023-09-07T14:46:02.890Z,99136.84
2023-09-07T14:48:29.614Z,99132.63
2023-09-07T14:50:56.292Z,99121.75
2023-09-07T14:53:23.067Z,99131.22
2023-09-07T14:55:50.038Z,99126.72
2023-09-07T14:58:17.901Z,99125.28
2023-09-07T15:00:44.585Z,99125.25
2023-09-07T15:03:11.287Z,99116.44
2023-09-07T15:05:38.027Z,99126.63
2023-09-07T15:08:05.586Z,99113.50
2023-09-07T15:10:34.966Z,99119.38
2023-09-07T15:13:03.589Z,99110.56
2023-09-07T15:15:34.621Z,99121.53
2023-09-07T15:18:01.793Z,99115.84
2023-09-07T15:20:29.080Z,99107.69
2023-09-07T15:22:56.067Z,99107.75
2023-09-07T15:25:22.700Z,99108.50
2023-09-07T15:27:49.529Z,99110.56
2023-09-07T15:30:16.766Z,99123.59
2023-09-07T15:32:43.597Z,99114.75
2023-09-07T15:35:10.829Z,99117.88
2023-09-07T15:37:37.645Z,99108.91
2023-09-07T15:40:04.814Z,99103.75
2023-09-07T15:42:31.475Z,99104.56
2023-09-07T15:44:58.396Z,99109.69
2023-09-07T15:47:26.786Z,99103.94
2023-09-07T15:49:53.739Z,99110.41
2023-09-07T15:52:20.944Z,99114.75
2023-09-07T15:54:47.608Z,99113.34
2023-09-07T15:57:14.233Z,99107.47
2023-09-07T15:59:40.902Z,99104.53
2023-09-07T16:02:07.886Z,99102.97
2023-09-07T16:04:34.562Z,99098.56
2023-09-07T16:07:01.262Z,99103.75
2023-09-07T16:09:28.823Z,99105.94
2023-09-07T16:11:55.467Z,99108.94
2023-09-07T16:14:22.266Z,99111.63
2023-09-07T16:16:49.018Z,99112.97
2023-09-07T16:19:17.602Z,99110.25
2023-09-07T16:21:44.495Z,99110.09
2023-09-07T16:24:12.109Z,99104.28
2023-09-07T16:26:38.892Z,99110.25
2023-09-07T16:29:05.661Z,99104.06
2023-09-07T16:31:32.469Z,99099.53
2023-09-07T16:33:59.853Z,99101.75
2023-09-07T16:36:27.821Z,99110.31
2023-09-07T16:38:54.591Z,99103.22
2023-09-07T16:41:21.308Z,99105.25
2023-09-07T16:43:48.109Z,99110.13
2023-09-07T16:46:14.893Z,99102.25
2023-09-07T16:48:41.575Z,99099.88
2023-09-07T16:51:08.374Z,99120.94
2023-09-07T16:53:35.901Z,99116.97
2023-09-07T16:56:03.310Z,99104.59
2023-09-07T17:01:06.034Z,99111.75
2023-09-07T17:03:33.080Z,99109.81
2023-09-07T17:05:59.957Z,99106.81
2023-09-07T17:08:26.677Z,99113.63
2023-09-07T17:10:53.489Z,99114.78
2023-09-07T17:13:20.189Z,99102.13
2023-09-07T17:15:51.914Z,99105.31
2023-09-07T17:18:19.087Z,99104.91
2023-09-07T17:20:46.003Z,99105.16
2023-09-07T17:23:13.929Z,99107.25
2023-09-07T17:25:40.849Z,99109.94
2023-09-07T17:28:07.516Z,99113.72
2023-09-07T17:30:38.281Z,99104.66
2023-09-07T17:33:05.577Z,99108.59
2023-09-07T17:35:37.710Z,99106.59
2023-09-07T17:38:04.650Z,99117.56
2023-09-07T17:40:31.280Z,99121.41
2023-09-07T17:42:59.879Z,99113.69
2023-09-07T17:45:26.556Z,99114.44
2023-09-07T17:47:53.990Z,99120.56
2023-09-07T17:50:20.770Z,99122.25
2023-09-07T17:52:47.444Z,99128.06
2023-09-07T17:55:14.210Z,99130.63
2023-09-07T17:57:41.082Z,99125.88
2023-09-07T18:00:09.911Z,99121.63
2023-09-07T18:02:38.090Z,99123.78
2023-09-07T18:05:05.188Z,99122.88
2023-09-07T18:07:31.819Z,99124.13
2023-09-07T18:09:58.431Z,99129.78
2023-09-07T18:12:25.329Z,99124.13
2023-09-07T18:14:54.103Z,99125.09
2023-09-07T18:17:20.795Z,99128.66
2023-09-07T18:19:50.328Z,99130.72
2023-09-07T18:22:17.732Z,99132.97
2023-09-07T18:24:44.428Z,99128.59
2023-09-07T18:27:12.021Z,99125.13
2023-09-07T18:29:38.640Z,99127.00
2023-09-07T18:32:05.901Z,99126.41
2023-09-07T18:34:34.518Z,99128.47
2023-09-07T18:37:01.265Z,99126.84
2023-09-07T18:39:27.915Z,99125.28
2023-09-07T18:41:54.838Z,99122.78
2023-09-07T18:44:21.581Z,99123.44
2023-09-07T18:46:48.379Z,99127.94
2023-09-07T18:49:15.318Z,99131.13
2023-09-07T18:51:41.985Z,99128.44
2023-09-07T18:54:09.627Z,99130.59
2023-09-07T18:56:36.243Z,99126.72
2023-09-07T18:59:02.889Z,99132.16
2023-09-07T19:01:29.640Z,99142.53
2023-09-07T19:04:10.470Z,99129.91
2023-09-07T19:06:40.878Z,99129.88
2023-09-07T19:09:10.981Z,99128.56
2023-09-07T19:11:37.669Z,99128.03
2023-09-07T19:14:05.189Z,99131.34
2023-09-07T19:16:31.955Z,99120.59
2023-09-07T19:18:58.743Z,99120.41
2023-09-07T19:21:26.652Z,99119.22
2023-09-07T19:23:53.520Z,99119.41
2023-09-07T19:26:35.331Z,99108.16
2023-09-07T19:29:05.242Z,99113.66
2023-09-07T19:31:33.257Z,99115.22
2023-09-07T19:34:00.917Z,99125.00
2023-09-07T19:36:28.284Z,99122.69
2023-09-07T19:38:58.434Z,99118.25
2023-09-07T19:41:30.066Z,99118.75
2023-09-07T19:43:59.876Z,99119.03
2023-09-07T19:46:26.677Z,99114.66
2023-09-07T19:48:55.859Z,99124.69
2023-09-07T19:51:23.774Z,99122.72
2023-09-07T19:53:50.973Z,99123.63
2023-09-07T19:56:22.021Z,99120.38
2023-09-07T19:58:48.821Z,99124.03
2023-09-07T20:01:18.553Z,99122.00
2023-09-07T20:03:48.136Z,99124.16
2023-09-07T20:06:20.828Z,99127.03
2023-09-07T20:08:47.974Z,99122.16
2023-09-07T20:11:18.520Z,99118.59
2023-09-07T20:13:45.429Z,99127.63
2023-09-07T20:16:15.782Z,99118.69
2023-09-07T20:18:42.771Z,99124.75
2023-09-07T20:21:09.642Z,99123.28
2023-09-07T20:23:36.875Z,99132.22
2023-09-07T20:26:04.004Z,99133.44
2023-09-07T20:28:32.756Z,99133.53
2023-09-07T20:31:00.408Z,99134.00
2023-09-07T20:33:27.486Z,99135.03
2023-09-07T20:35:54.587Z,99134.00
2023-09-07T20:38:21.266Z,99132.81
2023-09-07T20:40:48.911Z,99134.53
2023-09-07T20:43:23.260Z,99141.13
2023-09-07T20:45:50.806Z,99138.69
2023-09-07T20:48:18.014Z,99129.97
2023-09-07T20:50:46.577Z,99132.28
2023-09-07T20:53:14.000Z,99132.72
2023-09-07T20:55:41.000Z,99130.19
2023-09-07T20:58:07.927Z,99131.75
2023-09-07T21:00:34.787Z,99127.22
2023-09-07T21:03:01.786Z,99126.78
2023-09-07T21:05:28.778Z,99126.91
2023-09-07T21:07:57.228Z,99126.78
2023-09-07T21:10:24.763Z,99129.31
2023-09-07T21:12:51.657Z,99126.34
2023-09-07T21:15:19.618Z,99132.78
2023-09-07T21:17:46.333Z,99137.06
2023-09-07T21:20:13.171Z,99134.94
2023-09-07T21:22:40.320Z,99139.59
2023-09-07T21:25:08.164Z,99140.03
2023-09-07T21:27:36.166Z,99149.00
2023-09-07T21:30:06.737Z,99153.25
2023-09-07T21:32:33.678Z,99141.34
2023-09-07T21:35:00.519Z,99135.94
2023-09-07T21:37:27.250Z,99140.28
2023-09-07T21:39:53.969Z,99135.50
2023-09-07T21:42:20.692Z,99141.91
2023-09-07T21:44:47.604Z,99137.31
2023-09-07T21:47:14.408Z,99146.00
2023-09-07T21:49:41.242Z,99134.22
2023-09-07T21:52:08.144Z,99142.22
2023-09-07T21:54:35.000Z,99148.50
2023-09-07T21:57:04.434Z,99136.91
2023-09-07T21:59:31.853Z,99138.81
2023-09-07T22:01:58.808Z,99142.69
2023-09-07T22:04:25.540Z,99139.75
2023-09-07T22:06:52.749Z,99137.88
2023-09-07T22:09:19.543Z,99131.47
2023-09-07T22:11:46.253Z,99135.25
2023-09-07T22:14:13.026Z,99129.34
2023-09-07T22:16:40.568Z,99138.13
2023-09-07T22:19:07.436Z,99133.22
2023-09-07T22:21:34.107Z,99133.66
2023-09-07T22:24:02.415Z,99131.31
2023-09-07T22:26:29.212Z,99134.72
2023-09-07T22:28:56.870Z,99130.22
2023-09-07T22:31:23.661Z,99138.69
2023-09-07T22:33:50.422Z,99141.38
2023-09-07T22:36:17.216Z,99139.16
2023-09-07T22:38:43.939Z,99143.78
2023-09-07T22:41:10.795Z,99135.63
2023-09-07T22:43:41.747Z,99131.31
2023-09-07T22:46:11.534Z,99137.19
2023-09-07T22:48:38.659Z,99137.94
2023-09-07T22:51:05.987Z,99136.47
2023-09-07T22:53:32.946Z,99138.19
2023-09-07T22:55:59.724Z,99130.84
2023-09-07T22:58:26.452Z,99132.94
2023-09-07T23:00:53.409Z,99129.41
2023-09-07T23:03:22.561Z,99131.81
2023-09-07T23:05:49.794Z,99131.59
2023-09-07T23:08:16.588Z,99125.59
2023-09-07T23:10:43.930Z,99125.03
2023-09-07T23:13:11.411Z,99123.78
2023-09-07T23:15:39.218Z,99120.94
2023-09-07T23:18:06.424Z,99115.78
2023-09-07T23:20:33.374Z,99113.06
2023-09-07T23:23:00.391Z,99114.34
2023-09-07T23:25:27.362Z,99114.59
2023-09-07T23:27:54.133Z,99115.84
2023-09-07T23:30:21.765Z,99120.03
2023-09-07T23:32:50.123Z,99123.41
2023-09-07T23:35:17.412Z,99124.78
2023-09-07T23:37:44.849Z,99123.53
2023-09-07T23:40:14.492Z,99119.78
2023-09-07T23:42:42.746Z,99118.81
2023-09-07T23:45:10.814Z,99126.00
2023-09-07T23:47:38.677Z,99123.78
2023-09-07T23:50:06.247Z,99123.91
2023-09-07T23:52:33.500Z,99120.53
2023-09-07T23:55:00.861Z,99125.28
2023-09-07T23:57:28.356Z,99121.06
2023-09-07T23:59:59.331Z,99123.78
